Wilson Lista — 8PRW — position and weather

sailwx.info

Track history (hours):
 
Tides and Currents Weather Stations Pressure Air Temp Water Temp Dewpoint Dewpoint Depression Visibility Wind Speed Wind Dir Waves Ship Positions

Wilson Lista

Last reported at 2014-Jul-30 18:31 UTC. Time now 2014-Jul-31 09:37 UTC.
Position N 54°58' E 015°26'.

Length 88 m; draft 4.6 m.

Type: Cargo ship. MMSI: 314188000.

Date/timePositionNaut miles runAvg speedWind from/ knotsBaromVisibWave heightAir tempDewpointWater temp
2014-Jul-30 18:31N 54°58' E 015°26'66 8.3
2014-Jul-30 10:32N 54°51' E 013°32'11 8.0
2014-Jul-30 09:08N 54°50' E 013°12'13 8.0
2014-Jul-30 07:33N 54°46' E 012°52'10 9.6
2014-Jul-30 06:33N 54°42' E 012°37'9 9.4
2014-Jul-30 05:33N 54°37' E 012°23'8 8.5
2014-Jul-30 04:33N 54°30' E 012°16'9 8.6
2014-Jul-30 03:32N 54°25' E 012°03'10 9.8
2014-Jul-30 02:33N 54°25' E 011°47'1010.3
2014-Jul-30 01:33N 54°29' E 011°31'1010.0
2014-Jul-30 00:33N 54°33' E 011°15'12 9.5
2014-Jul-29 23:20N 54°34' E 010°55'50 7.3
2014-Jul-29 16:29N 54°14' E 009°36'9 8.2
2014-Jul-29 15:23N 54°09' E 009°22'7 8.0
2014-Jul-29 14:33N 54°03' E 009°18'5 5.3
2014-Jul-29 13:34N 53°58' E 009°16'4 3.6
2014-Jul-29 12:33N 53°55' E 009°12'3 2.7
2014-Jul-29 11:33N 53°53' E 009°08'7 7.5
2014-Jul-29 10:33N 53°51' E 008°57'1010.1
2014-Jul-29 09:33N 53°54' E 008°41'1110.3
2014-Jul-29 08:30N 53°59' E 008°24'9 9.7
2014-Jul-29 07:33N 53°59' E 008°08'20 9.9
2014-Jul-29 05:33N 53°55' E 007°35'17 8.0
2014-Jul-29 03:30N 53°51' E 007°08'18 7.8
2014-Jul-29 01:13N 53°47' E 006°39'6 8.4
2014-Jul-29 00:27N 53°45' E 006°28'8 9.0
2014-Jul-28 23:32N 53°43' E 006°15'9 9.5
2014-Jul-28 22:33N 53°40' E 006°00'10 9.8
2014-Jul-28 21:34N 53°37' E 005°44'1010.0
2014-Jul-28 20:33N 53°34' E 005°28'1010.1
2014-Jul-28 19:33N 53°31' E 005°12'1010.3
2014-Jul-28 18:33N 53°27' E 004°56'117 8.4
2014-Jul-28 04:34N 51°57' E 002°52'1110.7
2014-Jul-28 03:33N 51°49' E 002°41'1111.2
2014-Jul-28 02:33N 51°40' E 002°29'1111.2
2014-Jul-28 01:33N 51°31' E 002°18'1110.9
2014-Jul-28 00:33N 51°22' E 002°09'1110.9
2014-Jul-27 23:31N 51°12' E 001°59'1110.7
2014-Jul-27 22:26N 51°05' E 001°45'9 9.6
2014-Jul-27 21:32N 50°59' E 001°36'53 7.2
2014-Jul-27 14:10N 50°23' E 000°33'273 8.6
2014-Jul-26 06:26N 48°09' W 005°32'16 8.6
2014-Jul-26 04:33N 47°55' W 005°21'9 8.7
2014-Jul-26 03:33N 47°47' W 005°14'9 9.3
2014-Jul-26 02:33N 47°39' W 005°08'  
Track history (hours):
 
Tides and Currents Weather Stations Pressure Air Temp Water Temp Dewpoint Dewpoint Depression Visibility Wind Speed Wind Dir Waves Ship Positions

Wilson Lista

Last reported at 2014-Jul-30 18:31 UTC. Time now 2014-Jul-31 09:37 UTC.
Position N 54°58' E 015°26'.

Length 88 m; draft 4.6 m.

Type: Cargo ship. MMSI: 314188000.

Date/timePositionNaut miles runAvg speedWind from/ knotsBaromVisibWave heightAir tempDewpointWater temp
2014-Jul-30 18:31N 54°58' E 015°26'66 8.3
2014-Jul-30 10:32N 54°51' E 013°32'11 8.0
2014-Jul-30 09:08N 54°50' E 013°12'13 8.0
2014-Jul-30 07:33N 54°46' E 012°52'10 9.6
2014-Jul-30 06:33N 54°42' E 012°37'9 9.4
2014-Jul-30 05:33N 54°37' E 012°23'8 8.5
2014-Jul-30 04:33N 54°30' E 012°16'9 8.6
2014-Jul-30 03:32N 54°25' E 012°03'10 9.8
2014-Jul-30 02:33N 54°25' E 011°47'1010.3
2014-Jul-30 01:33N 54°29' E 011°31'1010.0
2014-Jul-30 00:33N 54°33' E 011°15'12 9.5
2014-Jul-29 23:20N 54°34' E 010°55'50 7.3
2014-Jul-29 16:29N 54°14' E 009°36'9 8.2
2014-Jul-29 15:23N 54°09' E 009°22'7 8.0
2014-Jul-29 14:33N 54°03' E 009°18'5 5.3
2014-Jul-29 13:34N 53°58' E 009°16'4 3.6
2014-Jul-29 12:33N 53°55' E 009°12'3 2.7
2014-Jul-29 11:33N 53°53' E 009°08'7 7.5
2014-Jul-29 10:33N 53°51' E 008°57'1010.1
2014-Jul-29 09:33N 53°54' E 008°41'1110.3
2014-Jul-29 08:30N 53°59' E 008°24'9 9.7
2014-Jul-29 07:33N 53°59' E 008°08'20 9.9
2014-Jul-29 05:33N 53°55' E 007°35'17 8.0
2014-Jul-29 03:30N 53°51' E 007°08'18 7.8
2014-Jul-29 01:13N 53°47' E 006°39'6 8.4
2014-Jul-29 00:27N 53°45' E 006°28'8 9.0
2014-Jul-28 23:32N 53°43' E 006°15'9 9.5
2014-Jul-28 22:33N 53°40' E 006°00'10 9.8
2014-Jul-28 21:34N 53°37' E 005°44'1010.0
2014-Jul-28 20:33N 53°34' E 005°28'1010.1
2014-Jul-28 19:33N 53°31' E 005°12'1010.3
2014-Jul-28 18:33N 53°27' E 004°56'117 8.4
2014-Jul-28 04:34N 51°57' E 002°52'1110.7
2014-Jul-28 03:33N 51°49' E 002°41'1111.2
2014-Jul-28 02:33N 51°40' E 002°29'1111.2
2014-Jul-28 01:33N 51°31' E 002°18'1110.9
2014-Jul-28 00:33N 51°22' E 002°09'1110.9
2014-Jul-27 23:31N 51°12' E 001°59'1110.7
2014-Jul-27 22:26N 51°05' E 001°45'9 9.6
2014-Jul-27 21:32N 50°59' E 001°36'53 7.2
2014-Jul-27 14:10N 50°23' E 000°33'273 8.6
2014-Jul-26 06:26N 48°09' W 005°32'16 8.6
2014-Jul-26 04:33N 47°55' W 005°21'9 8.7
2014-Jul-26 03:33N 47°47' W 005°14'9 9.3
2014-Jul-26 02:33N 47°39' W 005°08'  

Dump ship's entire track history